sensor_id;sensor_type;location;lat;lon;timestamp;pressure;altitude;pressure_sealevel;temperature;humidity
77939;BME280;67136;47.546;21.630;2024-01-27T00:00:19;100275.19;;;2.30;100.00
77939;BME280;67136;47.546;21.630;2024-01-27T00:03:22;100280.44;;;2.29;100.00
77939;BME280;67136;47.546;21.630;2024-01-27T00:06:24;100288.41;;;2.24;100.00
77939;BME280;67136;47.546;21.630;2024-01-27T00:09:28;100291.06;;;2.23;100.00
77939;BME280;67136;47.546;21.630;2024-01-27T00:12:30;100286.69;;;2.25;100.00
77939;BME280;67136;47.546;21.630;2024-01-27T00:15:33;100287.81;;;2.19;100.00
77939;BME280;67136;47.546;21.630;2024-01-27T00:18:36;100291.84;;;2.25;100.00
77939;BME280;67136;47.546;21.630;2024-01-27T00:21:40;100291.91;;;2.23;100.00
77939;BME280;67136;47.546;21.630;2024-01-27T00:24:43;100298.97;;;2.20;100.00
77939;BME280;67136;47.546;21.630;2024-01-27T00:27:45;100302.00;;;2.28;100.00
77939;BME280;67136;47.546;21.630;2024-01-27T00:30:48;100304.34;;;2.32;100.00
77939;BME280;67136;47.546;21.630;2024-01-27T00:33:51;100309.50;;;2.32;100.00
77939;BME280;67136;47.546;21.630;2024-01-27T00:36:53;100313.97;;;2.29;100.00
77939;BME280;67136;47.546;21.630;2024-01-27T00:39:58;100309.22;;;2.38;100.00
77939;BME280;67136;47.546;21.630;2024-01-27T00:43:02;100327.91;;;2.43;100.00
77939;BME280;67136;47.546;21.630;2024-01-27T00:46:05;100326.81;;;2.47;100.00
77939;BME280;67136;47.546;21.630;2024-01-27T00:49:08;100331.09;;;2.48;100.00
77939;BME280;67136;47.546;21.630;2024-01-27T00:52:11;100326.81;;;2.65;100.00
77939;BME280;67136;47.546;21.630;2024-01-27T00:55:14;100330.38;;;2.79;100.00
77939;BME280;67136;47.546;21.630;2024-01-27T00:58:17;100331.22;;;2.63;100.00
77939;BME280;67136;47.546;21.630;2024-01-27T01:01:20;100341.53;;;2.80;100.00
77939;BME280;67136;47.546;21.630;2024-01-27T01:04:23;100341.22;;;2.86;100.00
77939;BME280;67136;47.546;21.630;2024-01-27T01:07:25;100327.28;;;2.73;100.00
77939;BME280;67136;47.546;21.630;2024-01-27T01:10:28;100310.22;;;2.70;100.00
77939;BME280;67136;47.546;21.630;2024-01-27T01:13:34;100307.72;;;2.69;100.00
77939;BME280;67136;47.546;21.630;2024-01-27T01:16:40;100310.12;;;2.72;100.00
77939;BME280;67136;47.546;21.630;2024-01-27T01:19:42;100300.56;;;2.74;100.00
77939;BME280;67136;47.546;21.630;2024-01-27T01:22:48;100307.53;;;2.72;100.00
77939;BME280;67136;47.546;21.630;2024-01-27T01:25:50;100291.91;;;2.75;100.00
77939;BME280;67136;47.546;21.630;2024-01-27T01:28:53;100303.16;;;2.74;100.00
77939;BME280;67136;47.546;21.630;2024-01-27T01:31:58;100307.38;;;2.75;100.00
77939;BME280;67136;47.546;21.630;2024-01-27T01:35:04;100305.63;;;2.92;100.00
77939;BME280;67136;47.546;21.630;2024-01-27T01:38:06;100308.59;;;2.85;100.00
77939;BME280;67136;47.546;21.630;2024-01-27T01:41:09;100304.09;;;2.88;100.00
77939;BME280;67136;47.546;21.630;2024-01-27T01:44:12;100313.75;;;2.85;100.00
77939;BME280;67136;47.546;21.630;2024-01-27T01:47:15;100308.44;;;2.88;100.00
77939;BME280;67136;47.546;21.630;2024-01-27T01:50:18;100299.91;;;2.86;100.00
77939;BME280;67136;47.546;21.630;2024-01-27T01:53:22;100305.84;;;2.88;100.00
77939;BME280;67136;47.546;21.630;2024-01-27T01:56:25;100306.78;;;2.87;100.00
77939;BME280;67136;47.546;21.630;2024-01-27T01:59:32;100316.94;;;2.90;100.00
77939;BME280;67136;47.546;21.630;2024-01-27T02:02:35;100303.75;;;2.79;100.00
77939;BME280;67136;47.546;21.630;2024-01-27T02:05:38;100313.22;;;2.78;100.00
77939;BME280;67136;47.546;21.630;2024-01-27T02:08:44;100322.44;;;2.84;100.00
77939;BME280;67136;47.546;21.630;2024-01-27T02:11:49;100338.50;;;3.06;100.00
77939;BME280;67136;47.546;21.630;2024-01-27T02:14:52;100330.81;;;3.04;100.00
77939;BME280;67136;47.546;21.630;2024-01-27T02:17:56;100324.16;;;3.00;100.00
77939;BME280;67136;47.546;21.630;2024-01-27T02:20:59;100327.56;;;3.01;100.00
77939;BME280;67136;47.546;21.630;2024-01-27T02:24:09;100314.78;;;2.98;100.00
77939;BME280;67136;47.546;21.630;2024-01-27T02:27:12;100302.28;;;2.90;100.00
77939;BME280;67136;47.546;21.630;2024-01-27T02:30:15;100312.97;;;3.00;100.00
77939;BME280;67136;47.546;21.630;2024-01-27T02:33:18;100314.13;;;2.94;100.00
77939;BME280;67136;47.546;21.630;2024-01-27T02:36:20;100321.72;;;2.97;100.00
77939;BME280;67136;47.546;21.630;2024-01-27T02:39:26;100337.44;;;2.93;100.00
77939;BME280;67136;47.546;21.630;2024-01-27T02:42:29;100345.50;;;3.04;100.00
77939;BME280;67136;47.546;21.630;2024-01-27T02:45:31;100339.81;;;2.97;100.00
77939;BME280;67136;47.546;21.630;2024-01-27T02:48:44;100342.22;;;3.00;100.00
77939;BME280;67136;47.546;21.630;2024-01-27T02:51:47;100349.13;;;3.00;100.00
77939;BME280;67136;47.546;21.630;2024-01-27T02:54:50;100348.84;;;3.06;100.00
77939;BME280;67136;47.546;21.630;2024-01-27T02:57:53;100355.97;;;3.01;100.00
77939;BME280;67136;47.546;21.630;2024-01-27T03:00:55;100355.50;;;3.10;100.00
77939;BME280;67136;47.546;21.630;2024-01-27T03:03:58;100359.88;;;3.25;100.00
77939;BME280;67136;47.546;21.630;2024-01-27T03:07:02;100356.22;;;3.29;100.00
77939;BME280;67136;47.546;21.630;2024-01-27T03:10:05;100364.66;;;3.32;100.00
77939;BME280;67136;47.546;21.630;2024-01-27T03:13:08;100371.56;;;3.32;100.00
77939;BME280;67136;47.546;21.630;2024-01-27T03:16:11;100368.91;;;3.33;100.00
77939;BME280;67136;47.546;21.630;2024-01-27T03:19:17;100362.25;;;3.45;100.00
77939;BME280;67136;47.546;21.630;2024-01-27T03:22:20;100368.44;;;3.42;100.00
77939;BME280;67136;47.546;21.630;2024-01-27T03:25:24;100372.94;;;3.39;100.00
77939;BME280;67136;47.546;21.630;2024-01-27T03:28:28;100378.41;;;3.33;100.00
77939;BME280;67136;47.546;21.630;2024-01-27T03:31:34;100385.59;;;3.43;100.00
77939;BME280;67136;47.546;21.630;2024-01-27T03:34:43;100393.44;;;3.42;100.00
77939;BME280;67136;47.546;21.630;2024-01-27T03:37:50;100388.09;;;3.45;100.00
77939;BME280;67136;47.546;21.630;2024-01-27T03:40:54;100383.88;;;3.44;100.00
77939;BME280;67136;47.546;21.630;2024-01-27T03:43:57;100377.94;;;3.42;100.00
77939;BME280;67136;47.546;21.630;2024-01-27T03:46:59;100383.56;;;3.33;100.00
77939;BME280;67136;47.546;21.630;2024-01-27T03:50:02;100385.84;;;3.39;100.00
77939;BME280;67136;47.546;21.630;2024-01-27T03:53:07;100397.41;;;3.32;100.00
77939;BME280;67136;47.546;21.630;2024-01-27T03:56:12;100407.22;;;3.25;100.00
77939;BME280;67136;47.546;21.630;2024-01-27T03:59:14;100427.53;;;3.16;100.00
77939;BME280;67136;47.546;21.630;2024-01-27T04:02:17;100428.75;;;3.26;100.00
77939;BME280;67136;47.546;21.630;2024-01-27T04:05:20;100429.87;;;3.20;100.00
77939;BME280;67136;47.546;21.630;2024-01-27T04:08:25;100444.37;;;3.23;100.00
77939;BME280;67136;47.546;21.630;2024-01-27T04:11:28;100460.63;;;3.42;100.00
77939;BME280;67136;47.546;21.630;2024-01-27T04:14:30;100445.28;;;3.39;100.00
77939;BME280;67136;47.546;21.630;2024-01-27T04:17:33;100453.81;;;3.41;100.00
77939;BME280;67136;47.546;21.630;2024-01-27T04:20:36;100477.97;;;3.40;100.00
77939;BME280;67136;47.546;21.630;2024-01-27T04:23:39;100488.28;;;3.40;100.00
77939;BME280;67136;47.546;21.630;2024-01-27T04:26:42;100478.44;;;3.31;100.00
77939;BME280;67136;47.546;21.630;2024-01-27T04:29:48;100492.41;;;3.27;100.00
77939;BME280;67136;47.546;21.630;2024-01-27T04:32:51;100488.44;;;3.20;100.00
77939;BME280;67136;47.546;21.630;2024-01-27T04:35:54;100506.62;;;3.35;100.00
77939;BME280;67136;47.546;21.630;2024-01-27T04:38:57;100502.56;;;3.30;100.00
77939;BME280;67136;47.546;21.630;2024-01-27T04:42:00;100517.63;;;3.39;100.00
77939;BME280;67136;47.546;21.630;2024-01-27T04:45:03;100519.78;;;3.31;100.00
77939;BME280;67136;47.546;21.630;2024-01-27T04:48:07;100507.22;;;3.23;100.00
77939;BME280;67136;47.546;21.630;2024-01-27T04:51:10;100512.47;;;3.22;100.00
77939;BME280;67136;47.546;21.630;2024-01-27T04:54:12;100531.22;;;3.25;100.00
77939;BME280;67136;47.546;21.630;2024-01-27T04:57:16;100526.91;;;3.26;100.00
77939;BME280;67136;47.546;21.630;2024-01-27T05:00:19;100547.72;;;3.23;100.00
77939;BME280;67136;47.546;21.630;2024-01-27T05:03:22;100547.41;;;3.12;100.00
77939;BME280;67136;47.546;21.630;2024-01-27T05:06:25;100557.88;;;3.09;100.00
77939;BME280;67136;47.546;21.630;2024-01-27T05:09:28;100560.66;;;3.04;100.00
77939;BME280;67136;47.546;21.630;2024-01-27T05:12:31;100568.28;;;3.07;100.00
77939;BME280;67136;47.546;21.630;2024-01-27T05:15:34;100572.91;;;3.01;100.00
77939;BME280;67136;47.546;21.630;2024-01-27T05:18:37;100585.87;;;2.99;100.00
77939;BME280;67136;47.546;21.630;2024-01-27T05:21:40;100588.06;;;2.90;100.00
77939;BME280;67136;47.546;21.630;2024-01-27T05:24:44;100588.81;;;2.92;100.00
77939;BME280;67136;47.546;21.630;2024-01-27T05:27:49;100586.66;;;2.83;100.00
77939;BME280;67136;47.546;21.630;2024-01-27T05:30:55;100590.38;;;2.77;100.00
77939;BME280;67136;47.546;21.630;2024-01-27T05:33:58;100607.69;;;2.75;100.00
77939;BME280;67136;47.546;21.630;2024-01-27T05:37:02;100615.91;;;2.65;100.00
77939;BME280;67136;47.546;21.630;2024-01-27T05:40:06;100613.37;;;2.44;100.00
77939;BME280;67136;47.546;21.630;2024-01-27T05:43:11;100619.47;;;2.23;100.00
77939;BME280;67136;47.546;21.630;2024-01-27T05:46:14;100637.66;;;2.00;100.00
77939;BME280;67136;47.546;21.630;2024-01-27T05:49:17;100652.97;;;1.83;100.00
77939;BME280;67136;47.546;21.630;2024-01-27T05:52:19;100656.31;;;1.65;100.00
77939;BME280;67136;47.546;21.630;2024-01-27T05:55:27;100661.78;;;1.58;100.00
77939;BME280;67136;47.546;21.630;2024-01-27T05:58:29;100664.19;;;1.41;100.00
77939;BME280;67136;47.546;21.630;2024-01-27T06:01:32;100670.72;;;1.27;100.00
77939;BME280;67136;47.546;21.630;2024-01-27T06:04:36;100671.00;;;1.20;100.00
77939;BME280;67136;47.546;21.630;2024-01-27T06:07:39;100674.22;;;1.25;100.00
77939;BME280;67136;47.546;21.630;2024-01-27T06:10:43;100679.06;;;1.11;100.00
77939;BME280;67136;47.546;21.630;2024-01-27T06:13:46;100692.00;;;1.09;100.00
77939;BME280;67136;47.546;21.630;2024-01-27T06:16:56;100702.28;;;1.09;100.00
77939;BME280;67136;47.546;21.630;2024-01-27T06:19:59;100713.75;;;1.01;100.00
77939;BME280;67136;47.546;21.630;2024-01-27T06:23:03;100707.69;;;1.03;100.00
77939;BME280;67136;47.546;21.630;2024-01-27T06:26:09;100726.53;;;1.27;100.00
77939;BME280;67136;47.546;21.630;2024-01-27T06:29:12;100735.72;;;1.34;100.00
77939;BME280;67136;47.546;21.630;2024-01-27T06:32:16;100732.28;;;1.34;100.00
77939;BME280;67136;47.546;21.630;2024-01-27T06:35:19;100731.22;;;1.39;100.00
77939;BME280;67136;47.546;21.630;2024-01-27T06:38:21;100739.38;;;1.50;100.00
77939;BME280;67136;47.546;21.630;2024-01-27T06:41:24;100748.31;;;1.85;100.00
77939;BME280;67136;47.546;21.630;2024-01-27T06:44:27;100745.47;;;2.12;100.00
77939;BME280;67136;47.546;21.630;2024-01-27T06:47:32;100747.81;;;2.38;100.00
77939;BME280;67136;47.546;21.630;2024-01-27T06:50:35;100754.09;;;2.92;100.00
77939;BME280;67136;47.546;21.630;2024-01-27T06:53:37;100748.13;;;3.28;100.00
77939;BME280;67136;47.546;21.630;2024-01-27T06:56:40;100759.69;;;3.75;100.00
77939;BME280;67136;47.546;21.630;2024-01-27T06:59:43;100762.13;;;4.14;100.00
77939;BME280;67136;47.546;21.630;2024-01-27T07:02:48;100770.97;;;3.92;100.00
77939;BME280;67136;47.546;21.630;2024-01-27T07:05:50;100779.34;;;4.32;100.00
77939;BME280;67136;47.546;21.630;2024-01-27T07:08:53;100778.22;;;4.87;100.00
77939;BME280;67136;47.546;21.630;2024-01-27T07:11:56;100784.88;;;4.76;100.00
77939;BME280;67136;47.546;21.630;2024-01-27T07:14:58;100784.69;;;4.46;100.00
77939;BME280;67136;47.546;21.630;2024-01-27T07:18:03;100782.06;;;4.29;100.00
77939;BME280;67136;47.546;21.630;2024-01-27T07:21:06;100789.00;;;4.29;100.00
77939;BME280;67136;47.546;21.630;2024-01-27T07:24:11;100782.72;;;3.99;100.00
77939;BME280;67136;47.546;21.630;2024-01-27T07:27:14;100782.31;;;3.89;100.00
77939;BME280;67136;47.546;21.630;2024-01-27T07:30:17;100780.31;;;3.77;100.00
77939;BME280;67136;47.546;21.630;2024-01-27T07:33:20;100776.78;;;3.61;100.00
77939;BME280;67136;47.546;21.630;2024-01-27T07:36:23;100785.25;;;3.63;100.00
77939;BME280;67136;47.546;21.630;2024-01-27T07:39:26;100794.50;;;3.68;100.00
77939;BME280;67136;47.546;21.630;2024-01-27T07:42:31;100796.69;;;3.59;100.00
77939;BME280;67136;47.546;21.630;2024-01-27T07:45:34;100799.81;;;3.47;100.00
77939;BME280;67136;47.546;21.630;2024-01-27T07:48:37;100802.75;;;3.21;100.00
77939;BME280;67136;47.546;21.630;2024-01-27T07:51:40;100794.88;;;3.04;100.00
77939;BME280;67136;47.546;21.630;2024-01-27T07:54:43;100789.09;;;2.79;100.00
77939;BME280;67136;47.546;21.630;2024-01-27T07:57:45;100801.09;;;2.60;100.00
77939;BME280;67136;47.546;21.630;2024-01-27T08:00:48;100814.28;;;2.94;100.00
77939;BME280;67136;47.546;21.630;2024-01-27T08:03:53;100830.37;;;4.64;100.00
77939;BME280;67136;47.546;21.630;2024-01-27T08:06:56;100817.09;;;5.53;100.00
77939;BME280;67136;47.546;21.630;2024-01-27T08:09:58;100823.75;;;6.05;100.00
77939;BME280;67136;47.546;21.630;2024-01-27T08:13:01;100821.78;;;7.55;100.00
77939;BME280;67136;47.546;21.630;2024-01-27T08:16:08;100829.31;;;7.45;100.00
77939;BME280;67136;47.546;21.630;2024-01-27T08:19:15;100831.47;;;7.94;100.00
77939;BME280;67136;47.546;21.630;2024-01-27T08:22:26;100831.88;;;7.74;100.00
77939;BME280;67136;47.546;21.630;2024-01-27T08:25:29;100830.13;;;8.15;99.05
77939;BME280;67136;47.546;21.630;2024-01-27T08:28:32;100842.06;;;8.58;94.02
77939;BME280;67136;47.546;21.630;2024-01-27T08:31:35;100827.53;;;9.43;96.12
77939;BME280;67136;47.546;21.630;2024-01-27T08:34:38;100853.22;;;9.37;93.39
77939;BME280;67136;47.546;21.630;2024-01-27T08:37:41;100868.34;;;9.07;86.86
77939;BME280;67136;47.546;21.630;2024-01-27T08:40:47;100868.34;;;7.45;99.76
77939;BME280;67136;47.546;21.630;2024-01-27T08:43:49;100886.44;;;9.22;86.87
77939;BME280;67136;47.546;21.630;2024-01-27T08:46:52;100883.56;;;7.80;98.17
77939;BME280;67136;47.546;21.630;2024-01-27T08:49:57;100886.44;;;8.44;93.78
77939;BME280;67136;47.546;21.630;2024-01-27T08:53:00;100893.12;;;8.48;89.61
77939;BME280;67136;47.546;21.630;2024-01-27T08:56:03;100883.88;;;9.83;82.96
77939;BME280;67136;47.546;21.630;2024-01-27T08:59:07;100886.28;;;8.33;88.70
77939;BME280;67136;47.546;21.630;2024-01-27T09:02:12;100881.31;;;8.69;86.72
77939;BME280;67136;47.546;21.630;2024-01-27T09:05:15;100878.63;;;8.83;85.44
77939;BME280;67136;47.546;21.630;2024-01-27T09:08:17;100892.09;;;8.90;85.68
77939;BME280;67136;47.546;21.630;2024-01-27T09:11:20;100882.28;;;8.54;84.41
77939;BME280;67136;47.546;21.630;2024-01-27T09:14:24;100895.31;;;8.54;83.35
77939;BME280;67136;47.546;21.630;2024-01-27T09:17:27;100889.88;;;7.62;87.72
77939;BME280;67136;47.546;21.630;2024-01-27T09:20:33;100892.38;;;7.35;91.31
77939;BME280;67136;47.546;21.630;2024-01-27T09:23:35;100887.31;;;7.47;90.40
77939;BME280;67136;47.546;21.630;2024-01-27T09:26:39;100888.34;;;8.14;86.60
77939;BME280;67136;47.546;21.630;2024-01-27T09:29:42;100888.19;;;9.59;80.10
77939;BME280;67136;47.546;21.630;2024-01-27T09:32:45;100897.00;;;10.07;74.73
77939;BME280;67136;47.546;21.630;2024-01-27T09:35:49;100902.44;;;9.91;75.32
77939;BME280;67136;47.546;21.630;2024-01-27T09:38:51;100904.28;;;9.53;74.93
77939;BME280;67136;47.546;21.630;2024-01-27T09:41:56;100900.53;;;9.57;74.86
77939;BME280;67136;47.546;21.630;2024-01-27T09:45:02;100906.66;;;9.31;76.56
77939;BME280;67136;47.546;21.630;2024-01-27T09:48:07;100902.88;;;9.85;72.39
77939;BME280;67136;47.546;21.630;2024-01-27T09:51:13;100903.50;;;10.14;68.87
77939;BME280;67136;47.546;21.630;2024-01-27T09:54:16;100903.41;;;10.39;66.93
77939;BME280;67136;47.546;21.630;2024-01-27T09:57:20;100911.28;;;10.97;70.01
77939;BME280;67136;47.546;21.630;2024-01-27T10:00:23;100907.78;;;11.77;59.64
77939;BME280;67136;47.546;21.630;2024-01-27T10:03:27;100908.13;;;11.84;59.76
77939;BME280;67136;47.546;21.630;2024-01-27T10:06:31;100907.41;;;11.14;61.31
77939;BME280;67136;47.546;21.630;2024-01-27T10:09:34;100898.09;;;10.75;65.01
77939;BME280;67136;47.546;21.630;2024-01-27T10:12:41;100902.22;;;11.36;62.79
77939;BME280;67136;47.546;21.630;2024-01-27T10:15:47;100895.09;;;11.38;58.48
77939;BME280;67136;47.546;21.630;2024-01-27T10:19:01;100905.78;;;12.45;57.84
77939;BME280;67136;47.546;21.630;2024-01-27T10:22:07;100908.50;;;12.87;55.59
77939;BME280;67136;47.546;21.630;2024-01-27T10:25:10;100904.81;;;13.51;50.67
77939;BME280;67136;47.546;21.630;2024-01-27T10:28:13;100912.47;;;13.33;50.64
77939;BME280;67136;47.546;21.630;2024-01-27T10:31:15;100909.56;;;13.87;49.57
77939;BME280;67136;47.546;21.630;2024-01-27T10:34:21;100910.38;;;12.96;51.19
77939;BME280;67136;47.546;21.630;2024-01-27T10:37:24;100901.59;;;11.89;52.57
77939;BME280;67136;47.546;21.630;2024-01-27T10:40:31;100907.56;;;12.45;52.06
77939;BME280;67136;47.546;21.630;2024-01-27T10:43:39;100915.94;;;13.34;50.82
77939;BME280;67136;47.546;21.630;2024-01-27T10:46:46;100914.38;;;14.12;47.52
77939;BME280;67136;47.546;21.630;2024-01-27T10:49:50;100915.09;;;12.81;50.50
77939;BME280;67136;47.546;21.630;2024-01-27T10:52:57;100901.09;;;11.73;54.06
77939;BME280;67136;47.546;21.630;2024-01-27T10:56:00;100904.69;;;10.81;55.22
77939;BME280;67136;47.546;21.630;2024-01-27T10:59:04;100892.09;;;10.39;55.69
77939;BME280;67136;47.546;21.630;2024-01-27T11:02:12;100899.28;;;10.95;54.37
77939;BME280;67136;47.546;21.630;2024-01-27T11:05:17;100900.03;;;11.19;52.49
77939;BME280;67136;47.546;21.630;2024-01-27T11:08:22;100901.84;;;12.83;47.54
77939;BME280;67136;47.546;21.630;2024-01-27T11:11:31;100908.31;;;15.74;41.25
77939;BME280;67136;47.546;21.630;2024-01-27T11:14:34;100907.41;;;14.41;41.77
77939;BME280;67136;47.546;21.630;2024-01-27T11:17:41;100906.31;;;14.04;40.68
77939;BME280;67136;47.546;21.630;2024-01-27T11:20:44;100913.09;;;11.08;47.66
77939;BME280;67136;47.546;21.630;2024-01-27T11:23:47;100921.56;;;12.23;44.52
77939;BME280;67136;47.546;21.630;2024-01-27T11:27:00;100917.88;;;11.14;46.27
77939;BME280;67136;47.546;21.630;2024-01-27T11:30:04;100932.53;;;11.73;46.30
77939;BME280;67136;47.546;21.630;2024-01-27T11:33:07;100929.22;;;11.93;45.17
77939;BME280;67136;47.546;21.630;2024-01-27T11:36:22;100936.41;;;12.45;44.19
77939;BME280;67136;47.546;21.630;2024-01-27T11:39:27;100935.66;;;12.00;44.45
77939;BME280;67136;47.546;21.630;2024-01-27T11:42:30;100937.03;;;12.26;45.25
77939;BME280;67136;47.546;21.630;2024-01-27T11:45:33;100931.72;;;10.69;46.68
77939;BME280;67136;47.546;21.630;2024-01-27T11:48:41;100929.47;;;11.34;46.65
77939;BME280;67136;47.546;21.630;2024-01-27T11:51:45;100915.59;;;10.75;47.52
77939;BME280;67136;47.546;21.630;2024-01-27T11:54:55;100919.84;;;10.99;48.89
77939;BME280;67136;47.546;21.630;2024-01-27T11:58:00;100921.66;;;10.75;47.22
77939;BME280;67136;47.546;21.630;2024-01-27T12:01:03;100918.16;;;11.22;47.01
77939;BME280;67136;47.546;21.630;2024-01-27T12:04:07;100920.75;;;9.41;50.13
77939;BME280;67136;47.546;21.630;2024-01-27T12:07:13;100919.28;;;9.87;49.90
77939;BME280;67136;47.546;21.630;2024-01-27T12:10:17;100924.19;;;9.29;51.21
77939;BME280;67136;47.546;21.630;2024-01-27T12:13:20;100919.59;;;9.58;51.41
77939;BME280;67136;47.546;21.630;2024-01-27T12:16:26;100910.59;;;9.99;51.77
77939;BME280;67136;47.546;21.630;2024-01-27T12:19:29;100918.97;;;9.54;52.93
77939;BME280;67136;47.546;21.630;2024-01-27T12:22:32;100926.81;;;9.29;53.28
77939;BME280;67136;47.546;21.630;2024-01-27T12:25:35;100927.12;;;9.12;54.89
77939;BME280;67136;47.546;21.630;2024-01-27T12:28:38;100929.38;;;9.04;57.29
77939;BME280;67136;47.546;21.630;2024-01-27T12:31:41;100925.91;;;8.91;57.37
77939;BME280;67136;47.546;21.630;2024-01-27T12:34:44;100927.03;;;8.34;58.14
77939;BME280;67136;47.546;21.630;2024-01-27T12:37:51;100938.78;;;7.85;59.57
77939;BME280;67136;47.546;21.630;2024-01-27T12:40:54;100938.03;;;7.69;59.20
77939;BME280;67136;47.546;21.630;2024-01-27T12:43:59;100934.50;;;7.55;59.22
77939;BME280;67136;47.546;21.630;2024-01-27T12:47:02;100946.56;;;7.56;57.37
77939;BME280;67136;47.546;21.630;2024-01-27T12:50:05;100944.03;;;7.27;58.31
77939;BME280;67136;47.546;21.630;2024-01-27T12:53:08;100948.00;;;7.18;57.89
77939;BME280;67136;47.546;21.630;2024-01-27T12:56:12;100945.97;;;7.23;58.11
77939;BME280;67136;47.546;21.630;2024-01-27T12:59:15;100944.12;;;7.25;58.01
77939;BME280;67136;47.546;21.630;2024-01-27T13:02:18;100940.25;;;7.32;57.47
77939;BME280;67136;47.546;21.630;2024-01-27T13:05:21;100949.13;;;7.28;57.87
77939;BME280;67136;47.546;21.630;2024-01-27T13:08:24;100946.06;;;7.36;58.75
77939;BME280;67136;47.546;21.630;2024-01-27T13:11:30;100939.16;;;7.50;58.74
77939;BME280;67136;47.546;21.630;2024-01-27T13:14:33;100938.13;;;7.53;58.58
77939;BME280;67136;47.546;21.630;2024-01-27T13:17:39;100932.75;;;7.84;57.96
77939;BME280;67136;47.546;21.630;2024-01-27T13:20:43;100940.28;;;7.61;57.77
77939;BME280;67136;47.546;21.630;2024-01-27T13:23:46;100936.91;;;7.58;58.59
77939;BME280;67136;47.546;21.630;2024-01-27T13:26:49;100946.00;;;7.51;59.09
77939;BME280;67136;47.546;21.630;2024-01-27T13:29:52;100945.44;;;7.46;59.74
77939;BME280;67136;47.546;21.630;2024-01-27T13:32:54;100938.31;;;7.50;61.17
77939;BME280;67136;47.546;21.630;2024-01-27T13:35:58;100951.50;;;7.17;62.45
77939;BME280;67136;47.546;21.630;2024-01-27T13:39:08;100948.66;;;7.22;63.38
77939;BME280;67136;47.546;21.630;2024-01-27T13:42:11;100939.81;;;7.10;64.17
77939;BME280;67136;47.546;21.630;2024-01-27T13:45:17;100950.22;;;7.10;65.16
77939;BME280;67136;47.546;21.630;2024-01-27T13:48:21;100943.50;;;7.06;64.81
77939;BME280;67136;47.546;21.630;2024-01-27T13:51:23;100940.72;;;7.09;65.32
77939;BME280;67136;47.546;21.630;2024-01-27T13:54:26;100944.44;;;7.05;64.01
77939;BME280;67136;47.546;21.630;2024-01-27T13:57:29;100945.91;;;6.95;64.49
77939;BME280;67136;47.546;21.630;2024-01-27T14:00:32;100940.53;;;6.83;64.61
77939;BME280;67136;47.546;21.630;2024-01-27T14:03:37;100944.38;;;6.91;65.41
77939;BME280;67136;47.546;21.630;2024-01-27T14:06:40;100949.00;;;6.86;66.18
77939;BME280;67136;47.546;21.630;2024-01-27T14:09:43;100952.03;;;6.79;68.31
77939;BME280;67136;47.546;21.630;2024-01-27T14:12:47;100952.78;;;6.81;69.22
77939;BME280;67136;47.546;21.630;2024-01-27T14:15:50;100954.63;;;6.79;68.99
77939;BME280;67136;47.546;21.630;2024-01-27T14:18:52;100954.12;;;6.72;69.44
77939;BME280;67136;47.546;21.630;2024-01-27T14:21:56;100951.13;;;6.64;69.35
77939;BME280;67136;47.546;21.630;2024-01-27T14:24:58;100946.41;;;6.71;69.05
77939;BME280;67136;47.546;21.630;2024-01-27T14:28:01;100954.00;;;6.60;67.27
77939;BME280;67136;47.546;21.630;2024-01-27T14:31:04;100958.25;;;6.61;66.89
77939;BME280;67136;47.546;21.630;2024-01-27T14:34:08;100962.63;;;6.60;66.67
77939;BME280;67136;47.546;21.630;2024-01-27T14:37:15;100955.66;;;6.61;64.81
77939;BME280;67136;47.546;21.630;2024-01-27T14:40:21;100956.84;;;6.55;65.08
77939;BME280;67136;47.546;21.630;2024-01-27T14:43:26;100968.06;;;6.56;65.02
77939;BME280;67136;47.546;21.630;2024-01-27T14:46:31;100963.72;;;6.56;65.25
77939;BME280;67136;47.546;21.630;2024-01-27T14:49:34;100962.63;;;6.45;66.09
77939;BME280;67136;47.546;21.630;2024-01-27T14:52:42;100968.81;;;6.42;65.46
77939;BME280;67136;47.546;21.630;2024-01-27T14:55:44;100971.41;;;6.42;66.74
77939;BME280;67136;47.546;21.630;2024-01-27T14:58:47;100977.94;;;6.33;67.45
77939;BME280;67136;47.546;21.630;2024-01-27T15:01:56;100979.28;;;6.25;68.50
77939;BME280;67136;47.546;21.630;2024-01-27T15:05:01;100989.00;;;6.21;69.61
77939;BME280;67136;47.546;21.630;2024-01-27T15:08:05;101004.22;;;6.12;69.92
77939;BME280;67136;47.546;21.630;2024-01-27T15:11:07;101007.16;;;6.06;70.71
77939;BME280;67136;47.546;21.630;2024-01-27T15:14:10;101013.31;;;6.03;70.14
77939;BME280;67136;47.546;21.630;2024-01-27T15:17:12;101017.53;;;6.06;69.61
77939;BME280;67136;47.546;21.630;2024-01-27T15:20:15;101016.50;;;5.93;69.38
77939;BME280;67136;47.546;21.630;2024-01-27T15:23:18;101019.41;;;5.87;70.08
77939;BME280;67136;47.546;21.630;2024-01-27T15:26:26;101023.09;;;5.83;71.45
77939;BME280;67136;47.546;21.630;2024-01-27T15:29:32;101024.28;;;5.76;71.85
77939;BME280;67136;47.546;21.630;2024-01-27T15:32:35;101028.84;;;5.71;72.89
77939;BME280;67136;47.546;21.630;2024-01-27T15:35:41;101026.44;;;5.68;73.31
77939;BME280;67136;47.546;21.630;2024-01-27T15:38:44;101030.84;;;5.66;73.61
77939;BME280;67136;47.546;21.630;2024-01-27T15:41:51;101033.28;;;5.52;74.27
77939;BME280;67136;47.546;21.630;2024-01-27T15:44:53;101027.19;;;5.36;74.64
77939;BME280;67136;47.546;21.630;2024-01-27T15:47:56;101038.44;;;5.18;74.98
77939;BME280;67136;47.546;21.630;2024-01-27T15:51:02;101041.06;;;4.99;73.31